createdAt,value
2022-08-29T00:03:20.551Z,1023.7
2022-08-29T00:09:01.171Z,1023.8
2022-08-29T00:14:41.201Z,1023.7
2022-08-29T00:20:34.813Z,1023.7
2022-08-29T00:26:15.138Z,1023.8
2022-08-29T00:31:58.176Z,1024
2022-08-29T00:37:40.672Z,1024.3
2022-08-29T00:43:20.865Z,1024.6
2022-08-29T00:49:01.233Z,1024.6
2022-08-29T00:54:41.447Z,1024.9
2022-08-29T01:00:21.860Z,1025.5
2022-08-29T01:06:02.025Z,1025.5
2022-08-29T01:11:42.209Z,1025.6
2022-08-29T01:17:22.687Z,1025.7
2022-08-29T01:23:02.923Z,1025.7
2022-08-29T01:28:43.296Z,1026.1
2022-08-29T01:34:24.014Z,1026.2
2022-08-29T01:40:06.460Z,1026.1
2022-08-29T01:45:47.692Z,1026.1
2022-08-29T01:51:28.506Z,1026.1
2022-08-29T01:57:13.508Z,1026.1
2022-08-29T02:02:54.012Z,1026.2
2022-08-29T02:08:34.627Z,1026.2
2022-08-29T02:14:20.097Z,1026.2
2022-08-29T02:20:00.338Z,1026.2
2022-08-29T02:25:40.487Z,1026.3
2022-08-29T02:31:21.085Z,1026.4
2022-08-29T02:37:01.855Z,1026.5
2022-08-29T02:42:41.996Z,1026.5
2022-08-29T02:48:22.114Z,1026.5
2022-08-29T02:54:02.431Z,1026.5
2022-08-29T02:59:42.835Z,1026.5
2022-08-29T03:05:22.936Z,1026.6
2022-08-29T03:11:02.953Z,1026.6
2022-08-29T03:16:43.175Z,1026.6
2022-08-29T03:22:23.259Z,1026.5
2022-08-29T03:28:03.349Z,1026.6
2022-08-29T03:33:43.572Z,1026.7
2022-08-29T03:39:23.949Z,1026.6
2022-08-29T03:45:04.361Z,1026.6
2022-08-29T03:50:44.892Z,1026.7
2022-08-29T03:56:25.158Z,1026.7
2022-08-29T04:02:05.767Z,1026.7
2022-08-29T04:07:46.454Z,1026.8
2022-08-29T04:13:26.746Z,1026.8
2022-08-29T04:19:09.175Z,1027
2022-08-29T04:24:49.191Z,1027.1
2022-08-29T04:30:29.492Z,1026.9
2022-08-29T04:36:15.363Z,1027
2022-08-29T04:41:56.810Z,1027.1
2022-08-29T04:47:36.892Z,1027.1
2022-08-29T04:53:17.846Z,1027.2
2022-08-29T04:58:57.985Z,1027.3
2022-08-29T05:04:39.334Z,1027.3
2022-08-29T05:10:19.690Z,1027.3
2022-08-29T05:16:01.644Z,1027.4
2022-08-29T05:21:42.530Z,1027.4
2022-08-29T05:27:23.397Z,1027.5
2022-08-29T05:33:03.948Z,1027.4
2022-08-29T05:38:44.193Z,1027.2
2022-08-29T05:44:24.975Z,1027.1
2022-08-29T05:50:06.137Z,1026.6
2022-08-29T05:55:47.978Z,1025.1
2022-08-29T06:01:28.370Z,1024.3
2022-08-29T06:07:13.282Z,1024.7
2022-08-29T06:12:53.767Z,1024.9
2022-08-29T06:18:36.460Z,1025.1
2022-08-29T06:24:20.019Z,1025.3
2022-08-29T06:30:02.480Z,1025
2022-08-29T06:35:43.488Z,1024.2
2022-08-29T06:41:24.197Z,1024.1
2022-08-29T06:47:04.853Z,1023.7
2022-08-29T06:52:47.583Z,1023
2022-08-29T06:58:32.020Z,1022.1
2022-08-29T07:09:52.582Z,1021.8
2022-08-29T07:15:33.288Z,1021.7
2022-08-29T07:21:21.259Z,1021.9
2022-08-29T07:27:01.755Z,1021.9
2022-08-29T07:32:42.360Z,1021.8
2022-08-29T07:38:25.090Z,1021.9
2022-08-29T07:44:06.613Z,1021.8
2022-08-29T07:49:47.020Z,1021.7
2022-08-29T07:55:28.801Z,1021.8
2022-08-29T08:01:22.270Z,1021.7
2022-08-29T08:07:04.916Z,1021.8
2022-08-29T08:12:56.827Z,1021.8
2022-08-29T08:18:37.870Z,1021.8
2022-08-29T08:24:20.434Z,1021.8
2022-08-29T08:30:00.945Z,1021.8
2022-08-29T08:35:42.806Z,1021.8
2022-08-29T08:41:40.484Z,1021.8
2022-08-29T08:47:20.604Z,1021.9
2022-08-29T08:53:03.324Z,1021.9
2022-08-29T08:58:43.861Z,1021.9
2022-08-29T09:04:27.463Z,1021.9
2022-08-29T09:10:07.610Z,1021.9
2022-08-29T09:15:47.842Z,1021.9
2022-08-29T09:21:42.853Z,1021.9
2022-08-29T09:27:24.268Z,1022
2022-08-29T09:33:03.800Z,1021.9
2022-08-29T09:38:49.817Z,1021.9
2022-08-29T09:44:31.225Z,1021.9
2022-08-29T09:50:12.201Z,1021.8
2022-08-29T09:55:52.903Z,1021.7
2022-08-29T10:01:43.893Z,1021.7
2022-08-29T10:07:24.957Z,1021.7
2022-08-29T10:13:05.382Z,1021.7
2022-08-29T10:18:49.414Z,1021.6
2022-08-29T10:24:36.201Z,1021.7
2022-08-29T10:30:16.826Z,1021.7
2022-08-29T10:35:57.293Z,1021.7
2022-08-29T10:41:47.107Z,1021.6
2022-08-29T10:47:31.683Z,1021.4
2022-08-29T10:53:14.674Z,1021.4
2022-08-29T10:58:54.985Z,1021.4
2022-08-29T11:04:34.921Z,1021.2
2022-08-29T11:10:15.349Z,1021.2
2022-08-29T11:15:57.443Z,1021.3
2022-08-29T11:21:39.548Z,1021.3
2022-08-29T11:27:20.572Z,1021.2
2022-08-29T11:33:01.505Z,1021.1
2022-08-29T11:38:42.271Z,1021.1
2022-08-29T11:44:24.999Z,1021
2022-08-29T11:50:08.731Z,1021
2022-08-29T11:55:54.272Z,1020.9
2022-08-29T12:01:34.329Z,1020.8
2022-08-29T12:07:16.055Z,1020.8
2022-08-29T12:12:57.205Z,1020.7
2022-08-29T12:18:37.823Z,1020.7
2022-08-29T12:24:18.156Z,1020.7
2022-08-29T12:29:58.102Z,1020.7
2022-08-29T12:35:38.371Z,1020.6
2022-08-29T12:41:19.190Z,1020.5
2022-08-29T12:47:00.659Z,1020.5
2022-08-29T12:52:44.808Z,1020.5
2022-08-29T12:58:24.934Z,1020.5
2022-08-29T13:04:05.232Z,1020.4
2022-08-29T13:09:45.394Z,1020.4
2022-08-29T13:15:33.468Z,1020.4
2022-08-29T13:21:26.329Z,1020.4
2022-08-29T13:33:36.266Z,1020.3
2022-08-29T13:39:18.798Z,1020.2
2022-08-29T13:44:59.080Z,1020.2
2022-08-29T13:56:46.269Z,1020
2022-08-29T14:02:30.582Z,1020
2022-08-29T14:08:15.177Z,1020
2022-08-29T14:14:11.011Z,1020
2022-08-29T14:19:55.355Z,1020
2022-08-29T14:25:38.971Z,1020
2022-08-29T14:31:19.934Z,1019.9
2022-08-29T14:37:05.634Z,1019.9
2022-08-29T14:42:48.816Z,1019.9
2022-08-29T14:48:38.814Z,1019.9
2022-08-29T14:54:23.294Z,1019.8
2022-08-29T15:00:03.822Z,1019.8
2022-08-29T15:05:53.141Z,1019.7
2022-08-29T15:11:46.336Z,1019.6
2022-08-29T15:17:36.415Z,1019.5
2022-08-29T15:23:22.219Z,1019.3
2022-08-29T15:29:06.171Z,1019.4
2022-08-29T15:34:46.360Z,1019.3
2022-08-29T15:40:26.786Z,1019.3
2022-08-29T15:46:08.343Z,1019.3
2022-08-29T15:51:49.369Z,1019.4
2022-08-29T15:57:33.140Z,1019.4
2022-08-29T16:03:33.611Z,1019.2
2022-08-29T16:09:18.097Z,1019.2
2022-08-29T16:15:04.485Z,1019.3
2022-08-29T16:21:02.198Z,1019.2
2022-08-29T16:26:46.223Z,1019.1
2022-08-29T16:32:26.557Z,1019.1
2022-08-29T16:38:06.759Z,1019.1
2022-08-29T16:43:47.164Z,1019.1
2022-08-29T16:49:27.344Z,1019
2022-08-29T16:55:07.730Z,1019
2022-08-29T17:00:47.859Z,1019
2022-08-29T17:06:27.763Z,1019
2022-08-29T17:12:10.068Z,1019
2022-08-29T17:17:50.241Z,1019.1
2022-08-29T17:23:30.612Z,1019
2022-08-29T17:29:11.280Z,1019.1
2022-08-29T17:34:51.518Z,1019
2022-08-29T17:40:40.754Z,1019
2022-08-29T17:46:24.096Z,1019
2022-08-29T17:52:04.855Z,1019.1
2022-08-29T17:57:56.297Z,1019
2022-08-29T18:03:39.358Z,1019
2022-08-29T18:09:27.490Z,1019
2022-08-29T18:15:27.762Z,1019
2022-08-29T18:21:19.835Z,1018.9
2022-08-29T18:27:16.477Z,1018.9
2022-08-29T18:33:02.341Z,1018.8
2022-08-29T18:38:57.667Z,1019
2022-08-29T18:45:12.056Z,1019
2022-08-29T18:50:55.777Z,1019
2022-08-29T18:56:41.292Z,1019
2022-08-29T19:02:25.426Z,1019
2022-08-29T19:13:19.512Z,1019
2022-08-29T19:18:59.858Z,1019.1
2022-08-29T19:24:39.987Z,1019.2
2022-08-29T19:30:20.565Z,1019.1
2022-08-29T19:36:01.011Z,1019.2
2022-08-29T19:41:41.456Z,1019.2
2022-08-29T19:47:28.023Z,1019.2
2022-08-29T19:53:10.545Z,1019.1
2022-08-29T19:58:50.782Z,1019.1
2022-08-29T20:04:34.605Z,1019.2
2022-08-29T20:10:16.380Z,1019.3
2022-08-29T20:16:02.760Z,1019.3
2022-08-29T20:21:43.830Z,1019.3
2022-08-29T20:27:23.944Z,1019.3
2022-08-29T20:33:04.248Z,1019.3
2022-08-29T20:38:44.537Z,1019.2
2022-08-29T20:44:25.064Z,1019.2
2022-08-29T20:50:09.077Z,1019.1
2022-08-29T20:55:49.166Z,1019.2
2022-08-29T21:01:29.358Z,1019.2
2022-08-29T21:07:10.370Z,1019.2
2022-08-29T21:12:50.491Z,1019.4
2022-08-29T21:18:33.824Z,1019.3
2022-08-29T21:24:14.670Z,1019.3
2022-08-29T21:29:54.752Z,1019.2
2022-08-29T21:35:34.925Z,1019.2
2022-08-29T21:41:15.225Z,1019.3
2022-08-29T21:46:58.521Z,1019.3
2022-08-29T21:52:39.727Z,1019.2
2022-08-29T21:58:19.933Z,1019.3
2022-08-29T22:04:01.407Z,1019.4
2022-08-29T22:09:41.658Z,1019.5
2022-08-29T22:15:21.863Z,1019.5
2022-08-29T22:21:05.451Z,1019.5
2022-08-29T22:26:45.950Z,1019.6
2022-08-29T22:32:36.288Z,1019.6
2022-08-29T22:38:16.738Z,1019.6
2022-08-29T22:45:04.265Z,1019.6
2022-08-29T22:56:25.176Z,1019.4
2022-08-29T23:02:05.749Z,1019.3
2022-08-29T23:07:46.080Z,1019.3
2022-08-29T23:13:31.250Z,1019.4
2022-08-29T23:19:12.146Z,1019.3
2022-08-29T23:24:59.281Z,1019.2
2022-08-29T23:30:39.474Z,1019.4
2022-08-29T23:36:20.007Z,1019.3
2022-08-29T23:42:00.481Z,1019.4
2022-08-29T23:47:40.563Z,1019.5
2022-08-29T23:53:20.741Z,1019.5
2022-08-29T23:59:00.833Z,1019.4
